M/T Goviken — 9HA2718 — position and weather

sailwx.info

Track history (hours):
 
Tides and Currents Weather Stations Pressure Air Temp Water Temp Dewpoint Dewpoint Depression Visibility Wind Speed Wind Dir Waves Ship Positions

M/T Goviken

Last reported at 2014-Sep-22 04:31 UTC. Time now 2014-Sep-22 06:10 UTC.
Position N 50°30' E 000°59'.

Length 88 m; draft 6.5 m.

Type: Ship (hazmat cat C). MMSI: 215389000.

Date/timePositionNaut miles runAvg speedWind from/ knotsBaromVisibWave heightAir tempDewpointWater temp
2014-Sep-22 04:31N 50°30' E 000°59'8 8.7
2014-Sep-22 03:33N 50°28' E 000°46'9 9.0
2014-Sep-22 02:33N 50°26' E 000°32'9 8.9
2014-Sep-22 01:33N 50°24' E 000°19'  
2014-Sep-18 04:27N 38°22' W 009°32'7 8.2
2014-Sep-18 03:33N 38°18' W 009°25'8 8.2
2014-Sep-18 02:33N 38°12' W 009°17'8 8.0
2014-Sep-18 01:33N 38°07' W 009°09'8 8.3
2014-Sep-18 00:33N 38°02' W 009°01'9 8.6
2014-Sep-17 23:33N 37°55' W 008°54'2 1.6
2014-Sep-17 22:31N 37°57' W 008°53'0 0.0
2014-Sep-17 21:31N 37°57' W 008°53'0 0.0
2014-Sep-17 20:31N 37°57' W 008°53'0 0.0
2014-Sep-17 19:28N 37°57' W 008°53'0 0.0
2014-Sep-17 18:31N 37°57' W 008°53'0 0.0
2014-Sep-17 17:31N 37°57' W 008°53'0 0.0
2014-Sep-17 16:31N 37°57' W 008°53'0 0.0
2014-Sep-17 15:31N 37°57' W 008°53'0 0.0
2014-Sep-17 14:31N 37°57' W 008°53'0 0.0
2014-Sep-17 13:31N 37°57' W 008°53'0 0.0
2014-Sep-17 12:31N 37°57' W 008°53'0 0.0
2014-Sep-17 11:31N 37°57' W 008°53'0 0.0
2014-Sep-17 10:31N 37°57' W 008°53'0 0.0
2014-Sep-17 09:31N 37°57' W 008°53'0 0.0
2014-Sep-17 08:31N 37°57' W 008°53'0 0.0
2014-Sep-17 07:31N 37°57' W 008°53'0 0.0
2014-Sep-17 06:28N 37°57' W 008°53'0 0.0
2014-Sep-17 05:31N 37°57' W 008°53'0 0.0
2014-Sep-17 04:04N 37°57' W 008°53'0 0.0
2014-Sep-17 03:25N 37°57' W 008°53'0 0.0
2014-Sep-17 02:31N 37°57' W 008°53'0 0.0
2014-Sep-17 01:31N 37°57' W 008°53'0 0.0
2014-Sep-17 00:31N 37°57' W 008°53'0 0.0
2014-Sep-16 23:31N 37°57' W 008°53'0 0.0
2014-Sep-16 22:31N 37°57' W 008°53'0 0.0
2014-Sep-16 21:31N 37°57' W 008°53'0 0.0
2014-Sep-16 20:31N 37°57' W 008°53'0 0.0
2014-Sep-16 19:31N 37°57' W 008°53'0 0.0
2014-Sep-16 18:31N 37°57' W 008°53'0 0.0
2014-Sep-16 17:31N 37°57' W 008°53'0 0.0
2014-Sep-16 16:31N 37°57' W 008°53'1 0.7
2014-Sep-16 15:33N 37°56' W 008°53'5 4.9
2014-Sep-16 14:33N 37°52' W 008°54'7 7.5
2014-Sep-16 13:33N 37°45' W 008°57'10 9.7
2014-Sep-16 12:33N 37°36' W 009°02'10 9.7
2014-Sep-16 11:33N 37°27' W 009°08'1310.1
2014-Sep-16 10:15N 37°16' W 009°15'42 6.3
2014-Sep-16 03:33N 36°40' W 008°47'9 8.9
2014-Sep-16 02:33N 36°41' W 008°36'9 9.3
2014-Sep-16 01:32N 36°41' W 008°24'9 9.3
2014-Sep-16 00:33N 36°42' W 008°13'  
2014-Sep-13 13:32N 36°41' W 007°40'1211.3
2014-Sep-13 12:27N 36°39' W 007°55'1111.2
2014-Sep-13 11:28N 36°37' W 008°09'1511.0
2014-Sep-13 10:06N 36°33' W 008°27'610.5
2014-Sep-13 09:29N 36°31' W 008°34'1010.5
2014-Sep-13 08:33N 36°30' W 008°47'1110.2
2014-Sep-13 07:28N 36°28' W 009°00'32 9.8
2014-Sep-13 04:13N 36°43' W 009°35'33 9.0
2014-Sep-13 00:29N 37°15' W 009°24'1110.4
2014-Sep-12 23:27N 37°24' W 009°16'910.5
2014-Sep-12 22:33N 37°32' W 009°09'1110.6
2014-Sep-12 21:33N 37°40' W 009°01'1110.8
2014-Sep-12 20:33N 37°50' W 008°54'7 7.3
2014-Sep-12 19:33N 37°57' W 008°53'0 0.0
2014-Sep-12 18:33N 37°57' W 008°53'0 0.0
2014-Sep-12 17:33N 37°57' W 008°53'0 0.0
2014-Sep-12 16:33N 37°57' W 008°53'0 0.0
2014-Sep-12 15:33N 37°57' W 008°53'0 0.0
2014-Sep-12 14:33N 37°57' W 008°53'0 0.0
2014-Sep-12 13:33N 37°57' W 008°53'0 0.0
2014-Sep-12 12:33N 37°57' W 008°53'0 0.0
2014-Sep-12 11:33N 37°57' W 008°53'0 0.0
2014-Sep-12 10:33N 37°57' W 008°53'0 0.0
2014-Sep-12 09:33N 37°57' W 008°53'0 0.0
2014-Sep-12 08:33N 37°57' W 008°53'0 0.0
2014-Sep-12 07:30N 37°57' W 008°53'0 0.0
2014-Sep-12 06:33N 37°57' W 008°53'0 0.0
2014-Sep-12 05:33N 37°57' W 008°53'0 0.0
2014-Sep-12 04:33N 37°57' W 008°53'  
Track history (hours):
 
Tides and Currents Weather Stations Pressure Air Temp Water Temp Dewpoint Dewpoint Depression Visibility Wind Speed Wind Dir Waves Ship Positions

M/T Goviken

Last reported at 2014-Sep-22 04:31 UTC. Time now 2014-Sep-22 06:10 UTC.
Position N 50°30' E 000°59'.

Length 88 m; draft 6.5 m.

Type: Ship (hazmat cat C). MMSI: 215389000.

Date/timePositionNaut miles runAvg speedWind from/ knotsBaromVisibWave heightAir tempDewpointWater temp
2014-Sep-22 04:31N 50°30' E 000°59'8 8.7
2014-Sep-22 03:33N 50°28' E 000°46'9 9.0
2014-Sep-22 02:33N 50°26' E 000°32'9 8.9
2014-Sep-22 01:33N 50°24' E 000°19'  
2014-Sep-18 04:27N 38°22' W 009°32'7 8.2
2014-Sep-18 03:33N 38°18' W 009°25'8 8.2
2014-Sep-18 02:33N 38°12' W 009°17'8 8.0
2014-Sep-18 01:33N 38°07' W 009°09'8 8.3
2014-Sep-18 00:33N 38°02' W 009°01'9 8.6
2014-Sep-17 23:33N 37°55' W 008°54'2 1.6
2014-Sep-17 22:31N 37°57' W 008°53'0 0.0
2014-Sep-17 21:31N 37°57' W 008°53'0 0.0
2014-Sep-17 20:31N 37°57' W 008°53'0 0.0
2014-Sep-17 19:28N 37°57' W 008°53'0 0.0
2014-Sep-17 18:31N 37°57' W 008°53'0 0.0
2014-Sep-17 17:31N 37°57' W 008°53'0 0.0
2014-Sep-17 16:31N 37°57' W 008°53'0 0.0
2014-Sep-17 15:31N 37°57' W 008°53'0 0.0
2014-Sep-17 14:31N 37°57' W 008°53'0 0.0
2014-Sep-17 13:31N 37°57' W 008°53'0 0.0
2014-Sep-17 12:31N 37°57' W 008°53'0 0.0
2014-Sep-17 11:31N 37°57' W 008°53'0 0.0
2014-Sep-17 10:31N 37°57' W 008°53'0 0.0
2014-Sep-17 09:31N 37°57' W 008°53'0 0.0
2014-Sep-17 08:31N 37°57' W 008°53'0 0.0
2014-Sep-17 07:31N 37°57' W 008°53'0 0.0
2014-Sep-17 06:28N 37°57' W 008°53'0 0.0
2014-Sep-17 05:31N 37°57' W 008°53'0 0.0
2014-Sep-17 04:04N 37°57' W 008°53'0 0.0
2014-Sep-17 03:25N 37°57' W 008°53'0 0.0
2014-Sep-17 02:31N 37°57' W 008°53'0 0.0
2014-Sep-17 01:31N 37°57' W 008°53'0 0.0
2014-Sep-17 00:31N 37°57' W 008°53'0 0.0
2014-Sep-16 23:31N 37°57' W 008°53'0 0.0
2014-Sep-16 22:31N 37°57' W 008°53'0 0.0
2014-Sep-16 21:31N 37°57' W 008°53'0 0.0
2014-Sep-16 20:31N 37°57' W 008°53'0 0.0
2014-Sep-16 19:31N 37°57' W 008°53'0 0.0
2014-Sep-16 18:31N 37°57' W 008°53'0 0.0
2014-Sep-16 17:31N 37°57' W 008°53'0 0.0
2014-Sep-16 16:31N 37°57' W 008°53'1 0.7
2014-Sep-16 15:33N 37°56' W 008°53'5 4.9
2014-Sep-16 14:33N 37°52' W 008°54'7 7.5
2014-Sep-16 13:33N 37°45' W 008°57'10 9.7
2014-Sep-16 12:33N 37°36' W 009°02'10 9.7
2014-Sep-16 11:33N 37°27' W 009°08'1310.1
2014-Sep-16 10:15N 37°16' W 009°15'42 6.3
2014-Sep-16 03:33N 36°40' W 008°47'9 8.9
2014-Sep-16 02:33N 36°41' W 008°36'9 9.3
2014-Sep-16 01:32N 36°41' W 008°24'9 9.3
2014-Sep-16 00:33N 36°42' W 008°13'  
2014-Sep-13 13:32N 36°41' W 007°40'1211.3
2014-Sep-13 12:27N 36°39' W 007°55'1111.2
2014-Sep-13 11:28N 36°37' W 008°09'1511.0
2014-Sep-13 10:06N 36°33' W 008°27'610.5
2014-Sep-13 09:29N 36°31' W 008°34'1010.5
2014-Sep-13 08:33N 36°30' W 008°47'1110.2
2014-Sep-13 07:28N 36°28' W 009°00'32 9.8
2014-Sep-13 04:13N 36°43' W 009°35'33 9.0
2014-Sep-13 00:29N 37°15' W 009°24'1110.4
2014-Sep-12 23:27N 37°24' W 009°16'910.5
2014-Sep-12 22:33N 37°32' W 009°09'1110.6
2014-Sep-12 21:33N 37°40' W 009°01'1110.8
2014-Sep-12 20:33N 37°50' W 008°54'7 7.3
2014-Sep-12 19:33N 37°57' W 008°53'0 0.0
2014-Sep-12 18:33N 37°57' W 008°53'0 0.0
2014-Sep-12 17:33N 37°57' W 008°53'0 0.0
2014-Sep-12 16:33N 37°57' W 008°53'0 0.0
2014-Sep-12 15:33N 37°57' W 008°53'0 0.0
2014-Sep-12 14:33N 37°57' W 008°53'0 0.0
2014-Sep-12 13:33N 37°57' W 008°53'0 0.0
2014-Sep-12 12:33N 37°57' W 008°53'0 0.0
2014-Sep-12 11:33N 37°57' W 008°53'0 0.0
2014-Sep-12 10:33N 37°57' W 008°53'0 0.0
2014-Sep-12 09:33N 37°57' W 008°53'0 0.0
2014-Sep-12 08:33N 37°57' W 008°53'0 0.0
2014-Sep-12 07:30N 37°57' W 008°53'0 0.0
2014-Sep-12 06:33N 37°57' W 008°53'0 0.0
2014-Sep-12 05:33N 37°57' W 008°53'0 0.0
2014-Sep-12 04:33N 37°57' W 008°53'  

Dump ship's entire track history